Time;durP1;ratioP1;P1;durP2;ratioP2;P2;SDS_P1;SDS_P2;PMS_P1;PMS_P2;Temp;Humidity;BMP_temperature;BMP_pressure;BME280_temperature;BME280_humidity;BME280_pressure;Samples;Min_cycle;Max_cycle;Signal;HPM_P1;HPM_P2
2023/12/26 00:02:18;;;;;;;5.75;3.28;;;11.00;99.90;;;;;;4987118;28;20043;-88
2023/12/26 00:04:44;;;;;;;7.15;3.45;;;11.00;99.90;;;;;;4987194;28;20031;-87
2023/12/26 00:07:10;;;;;;;6.60;3.13;;;11.00;99.90;;;;;;4987234;28;20026;-87
2023/12/26 00:09:42;;;;;;;6.22;3.22;;;11.00;99.90;;;;;;4986474;28;20026;-86
2023/12/26 00:12:08;;;;;;;9.02;3.70;;;11.00;99.90;;;;;;4987324;28;20061;-86
2023/12/26 00:14:34;;;;;;;5.45;2.72;;;10.90;99.90;;;;;;4970193;28;20034;-88
2023/12/26 00:16:59;;;;;;;8.05;2.58;;;10.90;99.90;;;;;;5003366;28;20034;-87
2023/12/26 00:19:25;;;;;;;6.20;2.45;;;10.90;99.90;;;;;;5004287;28;20018;-87
2023/12/26 00:21:51;;;;;;;7.00;2.38;;;10.90;99.90;;;;;;4986483;28;20034;-86
2023/12/26 00:24:16;;;;;;;6.45;2.00;;;10.90;99.90;;;;;;4986750;28;20085;-87
2023/12/26 00:26:42;;;;;;;6.35;2.53;;;10.80;99.90;;;;;;4986928;28;20030;-85
2023/12/26 00:29:08;;;;;;;6.60;2.63;;;10.80;99.90;;;;;;4987359;28;20474;-84
2023/12/26 00:31:34;;;;;;;4.13;1.60;;;10.80;99.90;;;;;;5002478;28;20040;-85
2023/12/26 00:34:03;;;;;;;3.72;1.70;;;10.80;99.90;;;;;;5004373;28;20034;-87
2023/12/26 00:36:28;;;;;;;6.07;1.83;;;10.80;99.90;;;;;;5001569;28;20027;-87
2023/12/26 00:38:54;;;;;;;7.20;1.70;;;10.80;99.90;;;;;;4986816;28;20062;-87
2023/12/26 00:41:20;;;;;;;5.90;1.75;;;10.70;99.90;;;;;;4985219;28;20038;-88
2023/12/26 00:43:45;;;;;;;6.00;1.95;;;10.70;99.90;;;;;;4986204;28;20025;-86
2023/12/26 00:46:11;;;;;;;8.55;1.83;;;10.70;99.90;;;;;;4970822;28;20018;-87
2023/12/26 00:48:37;;;;;;;5.05;1.45;;;10.70;99.90;;;;;;5003643;28;20058;-88
2023/12/26 00:51:03;;;;;;;6.68;1.25;;;10.70;99.90;;;;;;4986152;28;20019;-87
2023/12/26 00:53:29;;;;;;;3.03;0.98;;;10.70;99.90;;;;;;4985792;28;20030;-87
2023/12/26 00:55:55;;;;;;;2.40;0.70;;;10.70;99.90;;;;;;5002828;28;20102;-87
2023/12/26 00:58:24;;;;;;;2.78;0.90;;;10.70;99.90;;;;;;4986075;28;20026;-87
2023/12/26 01:00:50;;;;;;;2.75;0.77;;;10.70;99.90;;;;;;5004135;28;20128;-87
2023/12/26 01:03:16;;;;;;;3.75;1.10;;;10.60;99.90;;;;;;4986564;28;20031;-86
2023/12/26 01:05:41;;;;;;;5.72;1.95;;;10.70;99.90;;;;;;5003023;28;20044;-87
2023/12/26 01:08:09;;;;;;;5.93;2.55;;;10.60;99.90;;;;;;4986290;28;20084;-87
2023/12/26 01:10:35;;;;;;;9.02;4.05;;;10.60;99.90;;;;;;5003242;28;20018;-87
2023/12/26 01:13:00;;;;;;;11.15;5.70;;;10.70;99.90;;;;;;4986385;28;20402;-87
2023/12/26 01:15:26;;;;;;;13.32;5.50;;;10.60;99.90;;;;;;4985599;28;20097;-85
2023/12/26 01:17:52;;;;;;;11.63;6.05;;;10.60;99.90;;;;;;4986068;28;20018;-86
2023/12/26 01:20:18;;;;;;;9.80;5.93;;;10.60;99.90;;;;;;4985575;28;20260;-86
2023/12/26 01:22:43;;;;;;;17.03;7.27;;;10.60;99.90;;;;;;4985349;28;20073;-87
2023/12/26 01:25:09;;;;;;;12.55;6.90;;;10.60;99.90;;;;;;4986133;28;20026;-85
2023/12/26 01:27:36;;;;;;;12.85;6.43;;;10.60;99.90;;;;;;4985209;28;20037;-87
2023/12/26 01:30:02;;;;;;;10.70;5.72;;;10.60;99.90;;;;;;4985703;28;20139;-87
2023/12/26 01:32:29;;;;;;;9.95;4.38;;;10.60;99.90;;;;;;4984948;28;20046;-86
2023/12/26 01:34:54;;;;;;;8.77;4.82;;;10.60;99.90;;;;;;4985117;28;20094;-85
2023/12/26 01:37:20;;;;;;;8.15;4.07;;;10.60;99.90;;;;;;5001958;28;20022;-85
2023/12/26 01:39:46;;;;;;;12.20;4.22;;;10.50;99.90;;;;;;4985419;28;20089;-86
2023/12/26 01:42:11;;;;;;;9.02;3.97;;;10.60;99.90;;;;;;4985855;28;20042;-86
2023/12/26 01:44:37;;;;;;;8.38;3.53;;;10.60;99.90;;;;;;4985092;28;20018;-86
2023/12/26 01:47:03;;;;;;;8.70;4.30;;;10.60;99.90;;;;;;5002924;28;20022;-86
2023/12/26 01:49:29;;;;;;;8.63;4.13;;;10.60;99.90;;;;;;5002064;28;20026;-85
2023/12/26 01:51:58;;;;;;;8.38;3.55;;;10.60;99.90;;;;;;4985125;28;20018;-87
2023/12/26 01:54:31;;;;;;;9.20;3.42;;;10.50;99.90;;;;;;4984752;28;20035;-87
2023/12/26 01:56:58;;;;;;;8.98;3.30;;;10.60;99.90;;;;;;4984992;28;20034;-86
2023/12/26 01:59:24;;;;;;;9.63;3.22;;;10.60;99.90;;;;;;4986026;28;20585;-86
2023/12/26 02:01:50;;;;;;;8.38;4.15;;;10.60;99.90;;;;;;5002408;28;20042;-85
2023/12/26 02:04:15;;;;;;;13.10;4.32;;;10.60;99.90;;;;;;4985332;28;20037;-84
2023/12/26 02:06:41;;;;;;;8.45;3.65;;;10.50;99.90;;;;;;5002190;28;20031;-85
2023/12/26 02:09:11;;;;;;;7.43;3.80;;;10.60;99.90;;;;;;5001586;28;20018;-86
2023/12/26 02:11:40;;;;;;;7.90;3.45;;;10.60;99.90;;;;;;5002730;28;20517;-85
2023/12/26 02:14:06;;;;;;;10.98;3.50;;;10.60;99.90;;;;;;4985047;28;20041;-86
2023/12/26 02:16:37;;;;;;;10.77;3.78;;;10.60;99.90;;;;;;4985240;28;20022;-86
2023/12/26 02:19:03;;;;;;;10.82;3.05;;;10.60;99.90;;;;;;4984205;28;20493;-87
2023/12/26 02:21:29;;;;;;;8.07;3.15;;;10.60;99.90;;;;;;5001082;28;20058;-85
2023/12/26 02:23:59;;;;;;;9.85;3.30;;;10.60;99.90;;;;;;4984241;28;20019;-85
2023/12/26 02:26:28;;;;;;;6.85;2.92;;;10.60;99.90;;;;;;4984789;28;20086;-86
2023/12/26 02:28:55;;;;;;;9.38;2.85;;;10.60;99.90;;;;;;4984593;28;20414;-85
2023/12/26 02:31:24;;;;;;;6.80;2.20;;;10.60;99.90;;;;;;4984528;28;20019;-85
2023/12/26 02:33:50;;;;;;;10.30;2.60;;;10.60;99.90;;;;;;4985036;28;20074;-86
2023/12/26 02:36:16;;;;;;;5.72;2.45;;;10.60;99.90;;;;;;4983984;28;20449;-86
2023/12/26 02:38:41;;;;;;;8.77;3.38;;;10.60;99.90;;;;;;4985006;28;20021;-86
2023/12/26 02:41:07;;;;;;;11.73;3.67;;;10.60;99.90;;;;;;5002073;28;20023;-86
2023/12/26 02:43:33;;;;;;;10.48;3.90;;;10.60;99.90;;;;;;4984643;28;20034;-86
2023/12/26 02:45:59;;;;;;;13.13;4.50;;;10.60;99.90;;;;;;4984602;28;20030;-86
2023/12/26 02:48:25;;;;;;;9.03;4.10;;;10.50;99.90;;;;;;4984140;28;20038;-87
2023/12/26 02:50:53;;;;;;;8.73;3.30;;;10.60;99.90;;;;;;5002251;28;20026;-86
2023/12/26 02:53:19;;;;;;;7.65;3.65;;;10.60;99.90;;;;;;5000107;28;20018;-86
2023/12/26 02:55:46;;;;;;;10.23;3.17;;;10.60;99.90;;;;;;4984534;28;20031;-86
2023/12/26 02:58:12;;;;;;;10.35;3.30;;;10.60;99.90;;;;;;4983739;28;20491;-86
2023/12/26 03:00:37;;;;;;;13.40;3.53;;;10.50;99.90;;;;;;4984647;28;20019;-87
2023/12/26 03:03:03;;;;;;;12.95;3.30;;;10.50;99.90;;;;;;5000631;28;20034;-87
2023/12/26 03:05:29;;;;;;;10.13;2.80;;;10.60;99.90;;;;;;4986850;28;20093;-86
2023/12/26 03:07:55;;;;;;;11.05;3.00;;;10.50;99.90;;;;;;4990594;28;20027;-86
2023/12/26 03:10:21;;;;;;;13.27;5.15;;;10.50;99.90;;;;;;4989209;28;20026;-86
2023/12/26 03:12:46;;;;;;;10.98;2.72;;;10.50;99.90;;;;;;4988186;28;20022;-86
2023/12/26 03:15:12;;;;;;;11.93;3.25;;;10.50;99.90;;;;;;4987745;28;20030;-86
2023/12/26 03:17:38;;;;;;;11.55;2.40;;;10.50;99.90;;;;;;4988010;28;20030;-87
2023/12/26 03:20:04;;;;;;;15.00;3.63;;;10.50;99.90;;;;;;5004540;28;20502;-86
2023/12/26 03:22:30;;;;;;;14.57;3.22;;;10.60;99.90;;;;;;4987711;28;20085;-86
2023/12/26 03:24:56;;;;;;;15.30;2.70;;;10.50;99.90;;;;;;4988346;28;20549;-86
2023/12/26 03:27:21;;;;;;;20.45;4.32;;;10.50;99.90;;;;;;4987089;28;20034;-85
2023/12/26 03:29:47;;;;;;;20.42;2.97;;;10.50;99.90;;;;;;5006065;28;20104;-85
2023/12/26 03:32:15;;;;;;;14.10;2.80;;;10.50;99.90;;;;;;5003464;28;20042;-85
2023/12/26 03:34:41;;;;;;;18.55;3.00;;;10.50;99.90;;;;;;4987201;28;20031;-84
2023/12/26 03:37:07;;;;;;;15.55;3.25;;;10.50;99.90;;;;;;5005213;28;20032;-83
2023/12/26 03:39:33;;;;;;;15.13;3.45;;;10.40;99.90;;;;;;4987928;28;20038;-83
2023/12/26 03:41:59;;;;;;;10.30;2.70;;;10.40;99.90;;;;;;4988116;28;20031;-84
2023/12/26 03:44:24;;;;;;;15.98;2.80;;;10.40;99.90;;;;;;5004963;28;20038;-84
2023/12/26 03:46:51;;;;;;;12.88;2.85;;;10.40;99.90;;;;;;4987870;28;20022;-85
2023/12/26 03:49:17;;;;;;;13.73;3.15;;;10.30;99.90;;;;;;4986784;28;20019;-85
2023/12/26 03:51:44;;;;;;;14.75;2.85;;;10.30;99.90;;;;;;4987667;28;20027;-85
2023/12/26 03:54:10;;;;;;;21.48;3.20;;;10.30;99.90;;;;;;4986937;28;20102;-85
2023/12/26 03:56:36;;;;;;;13.00;2.70;;;10.30;99.90;;;;;;4987004;28;20126;-84
2023/12/26 03:59:02;;;;;;;16.10;2.88;;;10.30;99.90;;;;;;4987407;28;20011;-84
2023/12/26 04:01:28;;;;;;;17.75;3.22;;;10.30;99.90;;;;;;4986502;28;20026;-84
2023/12/26 04:03:55;;;;;;;18.50;3.05;;;10.30;99.90;;;;;;4987668;28;20037;-84
2023/12/26 04:06:20;;;;;;;15.27;2.80;;;10.30;99.90;;;;;;4986450;28;20058;-85
2023/12/26 04:08:46;;;;;;;20.92;3.40;;;10.30;99.90;;;;;;4987289;28;20026;-84
2023/12/26 04:11:13;;;;;;;14.52;3.08;;;10.20;99.90;;;;;;4986742;28;20066;-85
2023/12/26 04:13:39;;;;;;;18.20;2.67;;;10.30;99.90;;;;;;4986983;28;20022;-84
2023/12/26 04:16:06;;;;;;;15.90;2.60;;;10.20;99.90;;;;;;4986217;28;20023;-84
2023/12/26 04:18:32;;;;;;;13.50;2.72;;;10.20;99.90;;;;;;4986650;28;20023;-85
2023/12/26 04:20:58;;;;;;;11.90;2.85;;;10.20;99.90;;;;;;4987313;28;20025;-85
2023/12/26 04:23:24;;;;;;;13.15;2.85;;;10.20;99.90;;;;;;4986280;28;20034;-85
2023/12/26 04:25:53;;;;;;;12.95;2.53;;;10.10;99.90;;;;;;4987719;28;20394;-85
2023/12/26 04:28:18;;;;;;;13.73;2.60;;;10.10;99.90;;;;;;4986173;28;20023;-85
2023/12/26 04:30:44;;;;;;;9.77;1.77;;;10.10;99.90;;;;;;4986934;28;20565;-85
2023/12/26 04:33:10;;;;;;;10.73;1.77;;;10.00;99.90;;;;;;4986522;28;20050;-85
2023/12/26 04:35:36;;;;;;;11.65;1.42;;;10.00;99.90;;;;;;4970002;28;20037;-84
2023/12/26 04:38:03;;;;;;;10.40;1.75;;;10.00;99.90;;;;;;4987097;28;20105;-84
2023/12/26 04:40:29;;;;;;;9.57;1.73;;;9.90;99.90;;;;;;4970235;28;20471;-84
2023/12/26 04:42:54;;;;;;;11.03;1.43;;;9.90;99.90;;;;;;4987213;28;20041;-84
2023/12/26 04:45:20;;;;;;;12.63;1.75;;;9.90;99.90;;;;;;4986109;28;20608;-85
2023/12/26 04:47:47;;;;;;;8.65;1.45;;;9.80;99.90;;;;;;4986577;28;20018;-86
2023/12/26 04:50:13;;;;;;;13.83;1.43;;;9.80;99.90;;;;;;4986036;28;20030;-84
2023/12/26 04:52:39;;;;;;;11.30;1.73;;;9.80;99.90;;;;;;4986116;28;20073;-84
2023/12/26 04:55:05;;;;;;;11.75;1.58;;;9.80;99.90;;;;;;4986627;28;20050;-83
2023/12/26 04:57:31;;;;;;;12.33;1.63;;;9.80;99.90;;;;;;4985458;28;20038;-85
2023/12/26 04:59:57;;;;;;;11.40;1.50;;;9.70;99.90;;;;;;4986341;28;20486;-86
2023/12/26 05:02:22;;;;;;;13.00;1.97;;;9.70;99.90;;;;;;4985645;28;20057;-84
2023/12/26 05:04:48;;;;;;;14.07;2.20;;;9.70;99.90;;;;;;4986070;28;20054;-84
2023/12/26 05:07:14;;;;;;;13.27;1.67;;;9.70;99.90;;;;;;4985132;28;20030;-83
2023/12/26 05:09:40;;;;;;;10.55;1.42;;;9.70;99.90;;;;;;4986255;28;20030;-84
2023/12/26 05:12:06;;;;;;;10.30;1.43;;;9.70;99.90;;;;;;4986190;28;20022;-83
2023/12/26 05:14:32;;;;;;;12.37;1.57;;;9.70;99.90;;;;;;4985691;28;20643;-83
2023/12/26 05:16:58;;;;;;;14.27;2.10;;;9.70;99.90;;;;;;4986371;28;20024;-82
2023/12/26 05:19:24;;;;;;;15.87;1.60;;;9.60;99.90;;;;;;4985300;28;20033;-83
2023/12/26 05:21:51;;;;;;;7.13;1.30;;;9.60;99.90;;;;;;4986028;28;20045;-84
2023/12/26 05:24:17;;;;;;;16.20;2.33;;;9.60;99.90;;;;;;5003055;28;20027;-84
2023/12/26 05:26:43;;;;;;;11.00;2.23;;;9.60;99.90;;;;;;4985827;28;20037;-83
2023/12/26 05:29:10;;;;;;;9.83;1.10;;;9.60;99.90;;;;;;4985132;28;20022;-83
2023/12/26 05:31:37;;;;;;;19.97;1.90;;;9.60;99.90;;;;;;4985115;28;20033;-84
2023/12/26 05:34:05;;;;;;;12.70;1.43;;;9.50;99.90;;;;;;4986125;28;20493;-83
2023/12/26 05:36:31;;;;;;;9.20;1.58;;;9.40;99.90;;;;;;4984498;28;20105;-85
2023/12/26 05:38:58;;;;;;;8.43;1.43;;;9.40;99.90;;;;;;5001778;28;20311;-85
2023/12/26 05:41:25;;;;;;;14.47;1.93;;;9.40;99.90;;;;;;5002291;28;20475;-84
2023/12/26 05:43:51;;;;;;;14.67;1.53;;;9.40;99.90;;;;;;5001808;28;20080;-83
2023/12/26 05:46:18;;;;;;;12.57;1.50;;;9.30;99.90;;;;;;4985138;28;20030;-85
2023/12/26 05:48:44;;;;;;;15.53;1.67;;;9.30;99.90;;;;;;4984755;28;20031;-85
2023/12/26 05:51:10;;;;;;;14.13;2.00;;;9.30;99.90;;;;;;4985952;28;20029;-84
2023/12/26 05:53:36;;;;;;;10.27;1.63;;;9.30;99.90;;;;;;4986129;28;20019;-85
2023/12/26 05:56:02;;;;;;;13.23;1.27;;;9.20;99.90;;;;;;4985428;28;20034;-84
2023/12/26 05:58:28;;;;;;;13.13;1.67;;;9.20;99.90;;;;;;4984329;28;20026;-85
2023/12/26 06:00:54;;;;;;;15.10;1.33;;;9.10;99.90;;;;;;4985575;28;20023;-84
2023/12/26 06:03:19;;;;;;;11.13;1.47;;;9.10;99.90;;;;;;4985410;28;20048;-84
2023/12/26 06:05:46;;;;;;;15.80;1.53;;;9.10;99.90;;;;;;4985116;28;20058;-84
2023/12/26 06:08:15;;;;;;;11.23;1.43;;;9.00;99.90;;;;;;4985898;28;20109;-84
2023/12/26 06:10:41;;;;;;;10.53;1.33;;;9.00;99.90;;;;;;5001156;28;20040;-85
2023/12/26 06:13:07;;;;;;;15.63;1.87;;;9.00;99.90;;;;;;5003582;28;20050;-85
2023/12/26 06:15:32;;;;;;;17.77;1.80;;;8.90;99.90;;;;;;5003797;28;20057;-83
2023/12/26 06:17:59;;;;;;;13.80;1.53;;;8.90;99.90;;;;;;4985522;28;20058;-84
2023/12/26 06:20:27;;;;;;;18.10;1.93;;;8.90;99.90;;;;;;4984055;28;20495;-84
2023/12/26 06:22:53;;;;;;;16.53;1.30;;;8.90;99.90;;;;;;4984462;28;20498;-84
2023/12/26 06:25:19;;;;;;;12.43;1.60;;;8.80;99.90;;;;;;4984610;28;20030;-83
2023/12/26 06:27:44;;;;;;;13.03;1.53;;;8.80;99.90;;;;;;4984265;28;20037;-84
2023/12/26 06:30:11;;;;;;;12.50;1.27;;;8.80;99.90;;;;;;5001328;28;20433;-83
2023/12/26 06:32:37;;;;;;;16.57;1.67;;;8.80;99.90;;;;;;4983574;28;20489;-82
2023/12/26 06:35:03;;;;;;;14.37;1.70;;;8.80;99.90;;;;;;4984326;28;20089;-83
2023/12/26 06:37:29;;;;;;;10.93;1.20;;;8.80;99.90;;;;;;4984350;28;20030;-83
2023/12/26 06:39:55;;;;;;;11.83;1.53;;;8.80;99.90;;;;;;4984182;28;20033;-83
2023/12/26 06:42:21;;;;;;;15.63;2.00;;;8.80;99.90;;;;;;4984707;28;20085;-84
2023/12/26 06:44:47;;;;;;;14.17;1.70;;;8.80;99.90;;;;;;4983966;28;20027;-84
2023/12/26 06:47:13;;;;;;;12.53;1.40;;;8.70;99.90;;;;;;4985921;28;20041;-84
2023/12/26 06:49:45;;;;;;;14.67;1.97;;;8.70;99.90;;;;;;5002263;28;20079;-86
2023/12/26 06:52:14;;;;;;;12.13;1.30;;;8.70;99.90;;;;;;5001681;28;20037;-84
2023/12/26 06:54:41;;;;;;;14.70;1.73;;;8.60;99.90;;;;;;4989031;28;20030;-84
2023/12/26 06:57:08;;;;;;;12.60;1.20;;;8.60;99.90;;;;;;4984165;28;20022;-85
2023/12/26 06:59:34;;;;;;;13.40;1.43;;;8.60;99.90;;;;;;4984446;28;20034;-85
2023/12/26 07:02:00;;;;;;;7.53;1.10;;;8.60;99.90;;;;;;4983647;28;20054;-85
2023/12/26 07:04:28;;;;;;;10.20;1.17;;;8.60;99.90;;;;;;4984383;28;20034;-85
2023/12/26 07:06:53;;;;;;;11.57;1.63;;;8.50;99.90;;;;;;5001350;28;20038;-84
2023/12/26 07:09:19;;;;;;;18.10;2.23;;;8.50;99.90;;;;;;5001963;28;20081;-85
2023/12/26 07:11:45;;;;;;;10.73;1.20;;;8.50;99.90;;;;;;4984088;28;20105;-84
2023/12/26 07:14:11;;;;;;;15.07;1.17;;;8.50;99.90;;;;;;4983734;28;20022;-85
2023/12/26 07:16:36;;;;;;;13.93;1.27;;;8.50;99.90;;;;;;4984323;28;20018;-84
2023/12/26 07:19:02;;;;;;;11.23;1.07;;;8.50;99.90;;;;;;5001223;28;20019;-84
2023/12/26 07:21:28;;;;;;;10.93;1.30;;;8.40;99.90;;;;;;4984979;28;20038;-84
2023/12/26 07:23:54;;;;;;;9.67;1.80;;;8.40;99.90;;;;;;4983186;28;20038;-84
2023/12/26 07:26:22;;;;;;;10.80;1.17;;;8.40;99.90;;;;;;5002033;28;20030;-84
2023/12/26 07:28:47;;;;;;;14.67;1.30;;;8.40;99.90;;;;;;4983211;28;20026;-84
2023/12/26 07:31:20;;;;;;;11.37;1.43;;;8.30;99.90;;;;;;4983882;28;20116;-85
2023/12/26 07:33:51;;;;;;;12.13;1.10;;;8.30;99.90;;;;;;4984379;28;20053;-84
2023/12/26 07:36:17;;;;;;;16.50;1.30;;;8.30;99.90;;;;;;4982876;28;20121;-83
2023/12/26 07:38:43;;;;;;;7.60;1.27;;;8.30;99.90;;;;;;4984003;28;20036;-84
2023/12/26 07:41:08;;;;;;;7.10;1.47;;;8.20;99.90;;;;;;4983248;28;20113;-83
2023/12/26 07:43:36;;;;;;;9.67;1.40;;;8.20;99.90;;;;;;5001544;28;20478;-84
2023/12/26 07:46:01;;;;;;;11.97;1.93;;;8.20;99.90;;;;;;4983620;28;20121;-84
2023/12/26 07:48:27;;;;;;;14.53;1.30;;;8.20;99.90;;;;;;5000005;28;20018;-84
2023/12/26 07:50:53;;;;;;;14.80;1.63;;;8.20;99.90;;;;;;4985255;28;20492;-83
2023/12/26 07:53:18;;;;;;;10.07;1.33;;;8.20;99.90;;;;;;5004525;28;20040;-84
2023/12/26 07:55:44;;;;;;;12.03;1.50;;;8.20;99.90;;;;;;4988026;28;20041;-82
2023/12/26 07:58:10;;;;;;;10.67;1.97;;;8.20;99.90;;;;;;4986813;28;20478;-83
2023/12/26 08:00:36;;;;;;;11.77;1.40;;;8.20;99.90;;;;;;4987736;28;20056;-83
2023/12/26 08:03:01;;;;;;;10.83;2.10;;;8.20;99.90;;;;;;4986462;28;20080;-82
2023/12/26 08:05:27;;;;;;;8.43;1.17;;;8.20;99.90;;;;;;5026481;28;20022;-82
2023/12/26 08:07:53;;;;;;;14.93;1.20;;;8.20;99.90;;;;;;5021923;28;20018;-82
2023/12/26 08:10:18;;;;;;;16.27;1.80;;;8.20;99.90;;;;;;5005874;28;20454;-82
2023/12/26 08:12:44;;;;;;;19.57;1.67;;;8.20;99.90;;;;;;5006896;28;20030;-81
2023/12/26 08:15:10;;;;;;;13.77;1.50;;;8.30;99.90;;;;;;5005402;28;20014;-80
2023/12/26 08:17:36;;;;;;;10.87;1.60;;;8.30;99.90;;;;;;5023960;28;20021;-81
2023/12/26 08:20:03;;;;;;;11.17;1.20;;;8.30;99.90;;;;;;5019102;28;20026;-81
2023/12/26 08:22:31;;;;;;;10.97;1.40;;;8.40;99.90;;;;;;4999392;28;20041;-81
2023/12/26 08:24:56;;;;;;;7.03;1.10;;;8.40;99.90;;;;;;5002674;28;20032;-81
2023/12/26 08:27:23;;;;;;;15.60;1.50;;;8.50;99.90;;;;;;5005677;28;20041;-82
2023/12/26 08:29:49;;;;;;;12.13;1.40;;;8.50;99.90;;;;;;5006049;28;20457;-82
2023/12/26 08:32:15;;;;;;;9.30;1.07;;;8.50;99.90;;;;;;5004997;28;20036;-82
2023/12/26 08:34:44;;;;;;;8.63;1.40;;;8.50;99.90;;;;;;5001404;28;20235;-82
2023/12/26 08:37:11;;;;;;;11.00;1.33;;;8.60;99.90;;;;;;5000465;28;20029;-82
2023/12/26 08:39:37;;;;;;;6.67;1.33;;;8.60;99.90;;;;;;5002724;28;20023;-82
2023/12/26 08:42:03;;;;;;;7.70;0.80;;;8.60;99.90;;;;;;5002180;28;20129;-82
2023/12/26 08:44:29;;;;;;;8.63;0.90;;;8.60;99.90;;;;;;5002586;28;20030;-82
2023/12/26 08:46:54;;;;;;;12.20;2.00;;;8.60;99.90;;;;;;5003286;28;20093;-81
2023/12/26 08:49:20;;;;;;;6.40;0.90;;;8.60;99.90;;;;;;5002631;28;20014;-81
2023/12/26 08:51:46;;;;;;;11.90;1.30;;;8.60;99.90;;;;;;5003309;28;20026;-80
2023/12/26 08:54:12;;;;;;;8.90;1.00;;;8.60;99.90;;;;;;5002333;28;20034;-81
2023/12/26 08:56:41;;;;;;;7.07;0.83;;;8.70;99.90;;;;;;5003192;28;20018;-81
2023/12/26 08:59:07;;;;;;;10.83;1.07;;;8.60;99.90;;;;;;5002880;28;20422;-81
2023/12/26 09:01:35;;;;;;;8.10;0.87;;;8.70;99.90;;;;;;5021935;28;20030;-81
2023/12/26 09:04:02;;;;;;;7.60;1.27;;;8.70;99.90;;;;;;5023161;28;20057;-81
2023/12/26 09:06:28;;;;;;;11.40;1.10;;;8.70;99.90;;;;;;5021630;28;20026;-81
2023/12/26 09:08:54;;;;;;;8.00;1.17;;;8.70;99.90;;;;;;5022347;28;20052;-81
2023/12/26 09:11:20;;;;;;;14.07;1.80;;;8.80;99.90;;;;;;5021254;28;20029;-81
2023/12/26 09:13:45;;;;;;;8.90;1.20;;;8.80;99.90;;;;;;5002610;28;20121;-81
2023/12/26 09:16:11;;;;;;;6.23;1.10;;;8.80;99.90;;;;;;5002360;28;20030;-81
2023/12/26 09:18:37;;;;;;;8.33;1.23;;;8.80;99.90;;;;;;5004284;28;20041;-81
2023/12/26 09:21:03;;;;;;;11.53;1.43;;;8.80;99.90;;;;;;5004277;28;20435;-81
2023/12/26 09:23:29;;;;;;;14.00;1.93;;;8.80;99.90;;;;;;5002820;28;20045;-81
2023/12/26 09:25:56;;;;;;;8.80;0.90;;;8.80;99.90;;;;;;4997381;28;20046;-81
2023/12/26 09:28:22;;;;;;;10.30;1.27;;;8.80;99.90;;;;;;4991548;28;20033;-81
2023/12/26 09:30:47;;;;;;;13.73;1.53;;;8.80;99.90;;;;;;5002067;28;20026;-82
2023/12/26 09:33:14;;;;;;;9.70;1.00;;;8.80;99.90;;;;;;5000860;28;20403;-82
2023/12/26 09:35:39;;;;;;;8.00;1.33;;;8.70;99.90;;;;;;5001050;28;20061;-82
2023/12/26 09:38:05;;;;;;;11.87;1.80;;;8.80;99.90;;;;;;5001447;28;20117;-82
2023/12/26 09:40:31;;;;;;;15.00;1.30;;;9.00;99.90;;;;;;5000557;28;20026;-82
2023/12/26 09:43:02;;;;;;;10.37;1.37;;;9.30;99.90;;;;;;5002118;28;20034;-82
2023/12/26 09:45:27;;;;;;;12.27;1.48;;;9.60;99.90;;;;;;5000561;28;20042;-82
2023/12/26 09:47:54;;;;;;;9.88;1.80;;;10.10;99.90;;;;;;5001585;28;20034;-83
2023/12/26 09:50:20;;;;;;;9.48;1.35;;;10.50;99.90;;;;;;5000544;28;20025;-82
2023/12/26 09:52:58;;;;;;;11.43;1.00;;;10.90;99.90;;;;;;5002177;28;20030;-82
2023/12/26 09:55:25;;;;;;;11.35;1.10;;;11.20;99.90;;;;;;5001539;28;20033;-82
2023/12/26 09:57:51;;;;;;;11.07;1.35;;;11.40;99.90;;;;;;5000277;28;20089;-82
2023/12/26 10:00:17;;;;;;;11.93;1.23;;;11.70;99.90;;;;;;5003285;28;20038;-82
2023/12/26 10:02:43;;;;;;;6.22;1.00;;;11.80;99.90;;;;;;5000133;28;20157;-82
2023/12/26 10:05:10;;;;;;;12.88;1.35;;;12.00;99.90;;;;;;5000941;28;20026;-82
2023/12/26 10:07:36;;;;;;;10.80;1.20;;;12.40;99.90;;;;;;5000500;28;20022;-82
2023/12/26 10:10:02;;;;;;;7.80;1.30;;;12.70;99.90;;;;;;5000774;28;20029;-82
2023/12/26 10:12:34;;;;;;;13.63;1.83;;;12.90;98.80;;;;;;5001083;28;20034;-81
2023/12/26 10:15:02;;;;;;;8.77;2.03;;;12.90;96.30;;;;;;5000050;28;20038;-82
2023/12/26 10:17:28;;;;;;;10.88;1.63;;;13.00;96.20;;;;;;5001067;28;20022;-82
2023/12/26 10:20:04;;;;;;;7.20;1.20;;;13.10;95.00;;;;;;4999783;28;20018;-82
2023/12/26 10:22:33;;;;;;;12.32;1.67;;;13.10;92.50;;;;;;5000992;28;20033;-82
2023/12/26 10:25:00;;;;;;;10.38;1.42;;;13.10;92.60;;;;;;5000491;28;20049;-81
2023/12/26 10:27:26;;;;;;;8.52;1.90;;;13.10;93.40;;;;;;5001608;28;20027;-81
2023/12/26 10:29:55;;;;;;;8.02;1.00;;;13.20;92.70;;;;;;5000675;28;20026;-81
2023/12/26 10:32:25;;;;;;;10.38;1.48;;;13.20;91.30;;;;;;4999641;28;20029;-81
2023/12/26 10:34:54;;;;;;;10.48;1.92;;;13.30;91.10;;;;;;5003660;28;20022;-82
2023/12/26 10:37:21;;;;;;;12.70;1.80;;;13.30;90.70;;;;;;5003512;28;20018;-82
2023/12/26 10:39:47;;;;;;;10.00;2.08;;;13.20;90.20;;;;;;4992610;28;20056;-82
2023/12/26 10:42:20;;;;;;;8.02;1.42;;;13.10;88.00;;;;;;4995852;28;20154;-81
2023/12/26 10:45:00;;;;;;;9.13;1.42;;;13.00;89.00;;;;;;5002578;28;20026;-82
2023/12/26 10:47:28;;;;;;;8.60;1.77;;;12.90;88.50;;;;;;5009668;28;20022;-82
2023/12/26 10:49:59;;;;;;;9.65;1.75;;;12.90;87.80;;;;;;5002382;28;20037;-82
2023/12/26 10:52:29;;;;;;;12.32;2.33;;;13.00;89.50;;;;;;4999588;28;20098;-82
2023/12/26 10:55:03;;;;;;;12.10;1.75;;;13.00;90.10;;;;;;5003149;28;20049;-82
2023/12/26 10:57:30;;;;;;;;;;;13.30;89.90;;;;;;4986225;28;20030;-82
2023/12/26 13:52:24;;;;;;;6.07;1.03;;;10.20;89.40;;;;;;5016912;28;20033;-81
2023/12/26 13:55:27;;;;;;;5.20;0.80;;;10.20;89.50;;;;;;5003985;28;20025;-82
2023/12/26 13:58:31;;;;;;;7.72;1.63;;;10.20;89.40;;;;;;5003867;28;20076;-82
2023/12/26 14:01:34;;;;;;;4.32;0.70;;;10.20;88.10;;;;;;5002163;28;20034;-82
2023/12/26 14:04:37;;;;;;;7.37;0.80;;;10.20;87.50;;;;;;4993858;28;20057;-82
2023/12/26 14:07:44;;;;;;;7.95;0.90;;;10.20;87.80;;;;;;4996450;28;20034;-81
2023/12/26 14:10:47;;;;;;;4.57;0.75;;;10.20;88.20;;;;;;5013730;28;20034;-82
2023/12/26 14:13:50;;;;;;;10.23;1.00;;;10.20;87.90;;;;;;4992057;28;20049;-82
2023/12/26 14:16:53;;;;;;;8.35;1.67;;;10.20;87.20;;;;;;4992897;28;20061;-82
2023/12/26 14:19:57;;;;;;;6.40;1.00;;;10.10;86.30;;;;;;4988282;28;20061;-82
2023/12/26 14:23:00;;;;;;;7.25;1.38;;;10.10;87.10;;;;;;5021509;28;20069;-82
2023/12/26 14:26:03;;;;;;;9.27;0.70;;;10.10;87.50;;;;;;5021334;28;20037;-81
2023/12/26 14:29:06;;;;;;;6.40;1.15;;;10.00;87.70;;;;;;5020970;28;20061;-82
2023/12/26 14:32:10;;;;;;;6.67;1.27;;;10.00;88.30;;;;;;5003886;28;20030;-82
2023/12/26 14:35:13;;;;;;;6.47;1.23;;;10.00;88.10;;;;;;5021833;28;20081;-82
2023/12/26 14:38:16;;;;;;;6.18;0.75;;;10.00;88.20;;;;;;4991815;28;20058;-82
2023/12/26 14:41:20;;;;;;;9.23;0.83;;;9.90;88.60;;;;;;4984930;28;20038;-82
2023/12/26 14:44:23;;;;;;;10.03;1.30;;;9.90;88.70;;;;;;5003675;28;20045;-82
2023/12/26 14:47:26;;;;;;;7.70;1.00;;;9.90;89.20;;;;;;5013406;28;20049;-82
2023/12/26 14:50:33;;;;;;;15.23;1.27;;;9.90;89.50;;;;;;4991031;28;20034;-81
2023/12/26 14:53:36;;;;;;;8.23;1.33;;;9.80;89.80;;;;;;5005820;28;20026;-81
2023/12/26 14:56:39;;;;;;;12.13;1.37;;;9.90;90.10;;;;;;4988921;28;20034;-81
2023/12/26 14:59:43;;;;;;;7.23;1.00;;;9.80;90.40;;;;;;5001022;28;20023;-82
2023/12/26 15:02:08;;;;;;;12.13;1.23;;;9.80;90.30;;;;;;5001662;28;20057;-82
2023/12/26 15:04:34;;;;;;;7.33;1.00;;;9.80;90.40;;;;;;5017279;28;21411;-82
2023/12/26 15:07:01;;;;;;;11.83;1.47;;;9.80;90.60;;;;;;5002603;28;20466;-83
2023/12/26 15:09:27;;;;;;;7.23;1.07;;;9.70;90.70;;;;;;5004480;28;20022;-82
2023/12/26 15:11:54;;;;;;;9.20;1.30;;;9.80;90.90;;;;;;5003440;28;20026;-82
2023/12/26 15:14:19;;;;;;;5.53;0.90;;;9.70;91.00;;;;;;4996247;28;20018;-82
2023/12/26 15:16:45;;;;;;;9.40;1.30;;;9.70;91.20;;;;;;4984297;28;20091;-82
2023/12/26 15:19:11;;;;;;;8.40;1.13;;;9.70;91.20;;;;;;4984720;28;20022;-82
2023/12/26 15:21:42;;;;;;;5.93;0.70;;;9.70;91.20;;;;;;5004337;28;20150;-82
2023/12/26 15:24:09;;;;;;;7.23;0.97;;;9.70;91.60;;;;;;5002976;28;20057;-82
2023/12/26 15:26:35;;;;;;;6.10;1.40;;;9.70;91.50;;;;;;5003918;28;20033;-81
2023/12/26 15:29:01;;;;;;;5.27;1.13;;;9.60;91.50;;;;;;5002640;28;20026;-82
2023/12/26 15:31:26;;;;;;;7.00;0.73;;;9.70;91.60;;;;;;5003103;28;20025;-82
2023/12/26 15:33:52;;;;;;;8.38;1.10;;;9.60;91.60;;;;;;5002921;28;20050;-82
2023/12/26 15:36:19;;;;;;;9.23;1.00;;;9.60;91.50;;;;;;5002419;28;20069;-81
2023/12/26 15:38:45;;;;;;;7.00;1.50;;;9.60;91.70;;;;;;5004188;28;20113;-82
2023/12/26 15:41:11;;;;;;;7.37;1.20;;;9.60;91.70;;;;;;5002750;28;20053;-82
2023/12/26 15:43:37;;;;;;;7.30;1.50;;;9.60;91.40;;;;;;5004155;28;20038;-82
2023/12/26 15:46:03;;;;;;;4.30;1.03;;;9.60;91.50;;;;;;5003008;28;20026;-82
2023/12/26 15:48:32;;;;;;;7.70;1.37;;;9.60;91.50;;;;;;5004210;28;20513;-82